Flugplatz Uetersen/Heist

EDHE · 石勒苏益格-荷尔斯泰因, 德国

使用的METAR站距离机场69 km。
罗盘
风向 的 风向 的 风向 到 风向 240° Flugplatz Uetersen/Heist 9L/27R
风: 6 kt, 2 beaufort

5 kt

3 kt
改变
0 ft 1.000 2.000 3.000 4.000 5.000
Cloud Cloud Cloud Cloud Cloud Cloud Cloud Cloud
OVC 700
METAR EDHL 210220Z AUTO 24006KT 150V310 4000 R25///// // OVC007/// 08/07 Q1015

METAR Flugplatz Uetersen/Heist - EDHE

Flugplatz Uetersen/Heist是,德国中的小机场。 该机场位于纬度53,64774和经度9,70387。 该机场有2条跑道: 9L/27R 和 9R/27L. 本场的ICAO机场代码为EDHE。 机场在Bremen FIR中。

该航空气象观测是针对Lübeck Blankensee Airport在2024年2月21日 03:20, 当地时间进行的。

机场观察

风向为240°,速度为6 kt。 风向在150°和310°之间变化。

可见度为4 km。

有乌云密布在700 ft的高度。 破损或更高的上限为700 ft。

温度为8 °C,阵风为4 °C。 露点为7 °C,相对湿度为93%。 海平面上的气压为1015 hPa (QNH)。

白天

今天,太阳从07:28升起,在17:41降落。 这适用于Flugplatz Uetersen/Heist,世界夏令时可能有所不同。 当地时间与世界标准时间之间的时差为+1 小时。 当前,没有夏令时有效。

公司介绍

在这个机场,你可以找到飞行学校。 这个机场上的公司有Flugschule Hamburg 和 Flugschule Hanseair。

体会

到Vliegles.nl去找飞行课程,跳伞和其他飞行体验。 浏览页面,了解Flugplatz Uetersen/Heist附近所有可用的活动。 你也可以使用搜索功能来寻找你所在地附近的特定飞行课程、跳伞或其他飞行体验。

跑道

Id 标题 侧风 逆风 侧风 %
9L/27R 093°-273° 3 kt 5 kt 54 %
9R/27L 094°-274° 3 kt 5 kt 56 %

逆风成分最大的方向会被突出显示,并用于横风计算。 这并不一定意味着这个方向在使用。

乌云

700 ft OVC 乌云密布

温度 & 天气

温度 8 °C
露点 7 °C
相对湿度 93%
风寒 4 °C
Kp-index 0 (0-9)

白天

日出
07:24 (3:22)
中午
12:30
日落
17:37

小工具

你想在你的网站上有一个关于Flugplatz Uetersen/Heist的当前航空天气(METAR)的小部件吗?

显示HTML代码
?>